Time;durP1;ratioP1;P1;durP2;ratioP2;P2;SDS_P1;SDS_P2;PMS_P1;PMS_P2;Temp;Humidity;BMP_temperature;BMP_pressure;BME280_temperature;BME280_humidity;BME280_pressure;Samples;Min_cycle;Max_cycle;Signal;HPM_P1;HPM_P2
2022/05/21 00:02:11;;;;;;;;;;;23.70;48.70;;;;;;6186522;28;19929;-57
2022/05/21 00:05:14;;;;;;;;;;;23.60;48.60;;;;;;6186659;28;19960;-56
2022/05/21 00:08:15;;;;;;;;;;;23.90;48.80;;;;;;6168394;28;20146;-56
2022/05/21 00:11:17;;;;;;;;;;;23.90;48.70;;;;;;6178572;28;19921;-52
2022/05/21 00:14:20;;;;;;;;;;;23.80;48.70;;;;;;6169671;28;19987;-55
2022/05/21 00:17:21;;;;;;;;;;;23.60;48.70;;;;;;6173545;28;19960;-54
2022/05/21 00:23:41;;;;;;;;;;;23.60;48.60;;;;;;6189253;28;19936;-55
2022/05/21 00:26:43;;;;;;;;;;;23.90;48.80;;;;;;6187741;28;19937;-53
2022/05/21 00:29:44;;;;;;;;;;;23.50;48.50;;;;;;6177346;28;19930;-56
2022/05/21 00:32:45;;;;;;;;;;;23.70;48.60;;;;;;6181622;28;19933;-57
2022/05/21 00:35:48;;;;;;;;;;;23.60;48.70;;;;;;6187934;28;19925;-51
2022/05/21 00:38:49;;;;;;;;;;;23.70;48.60;;;;;;6171324;28;20027;-55
2022/05/21 00:41:50;;;;;;;;;;;23.90;48.80;;;;;;6186845;28;19964;-53
2022/05/21 00:44:52;;;;;;;;;;;23.80;48.70;;;;;;6191827;28;19929;-53
2022/05/21 00:47:53;;;;;;;;;;;23.60;48.60;;;;;;6187485;28;19968;-55
2022/05/21 00:50:55;;;;;;;;;;;23.50;48.50;;;;;;6191278;28;20043;-54
2022/05/21 00:53:58;;;;;;;;;;;23.60;48.70;;;;;;6180438;28;19960;-54
2022/05/21 00:57:01;;;;;;;;;;;23.80;48.70;;;;;;6187682;28;19925;-55
2022/05/21 01:00:04;;;;;;;;;;;23.40;48.50;;;;;;6187384;28;20815;-55
2022/05/21 01:03:06;;;;;;;;;;;23.70;48.60;;;;;;6189348;28;20868;-57
2022/05/21 01:06:08;;;;;;;;;;;24.00;48.80;;;;;;6185377;28;19995;-58
2022/05/21 01:09:10;;;;;;;;;;;23.60;48.60;;;;;;6185702;28;20023;-56
2022/05/21 01:12:11;;;;;;;;;;;23.40;48.50;;;;;;6183188;28;19994;-56
2022/05/21 01:15:15;;;;;;;;;;;23.50;48.60;;;;;;6184755;28;19987;-55
2022/05/21 01:18:17;;;;;;;;;;;23.40;48.50;;;;;;6188716;28;20730;-56
2022/05/21 01:21:19;;;;;;;;;;;23.70;48.60;;;;;;6188845;28;19975;-58
2022/05/21 01:24:21;;;;;;;;;;;23.60;48.60;;;;;;6172964;28;19929;-57
2022/05/21 01:27:23;;;;;;;;;;;23.60;48.60;;;;;;6188695;28;19929;-54
2022/05/21 01:30:26;;;;;;;;;;;23.40;48.50;;;;;;6182969;28;19925;-56
2022/05/21 01:33:29;;;;;;;;;;;23.50;48.50;;;;;;6184504;28;20042;-57
2022/05/21 01:36:30;;;;;;;;;;;23.60;48.60;;;;;;6173861;28;19941;-57
2022/05/21 01:39:33;;;;;;;;;;;23.60;48.60;;;;;;6191243;28;20069;-56
2022/05/21 01:42:34;;;;;;;;;;;23.20;48.40;;;;;;6177107;28;19929;-54
2022/05/21 01:45:36;;;;;;;;;;;23.60;48.60;;;;;;6172459;28;20400;-52
2022/05/21 01:48:38;;;;;;;;;;;23.40;48.60;;;;;;6178962;28;19937;-57
2022/05/21 01:51:39;;;;;;;;;;;23.70;48.70;;;;;;6173011;28;19960;-55
2022/05/21 01:54:41;;;;;;;;;;;23.60;48.70;;;;;;6174654;28;20384;-58
2022/05/21 01:57:43;;;;;;;;;;;23.60;48.70;;;;;;6179326;28;20263;-55
2022/05/21 02:00:44;;;;;;;;;;;23.50;48.70;;;;;;6180203;28;20538;-52
2022/05/21 02:03:46;;;;;;;;;;;23.80;48.70;;;;;;6178339;28;19925;-56
2022/05/21 02:06:47;;;;;;;;;;;23.60;48.70;;;;;;6176246;28;19951;-55
2022/05/21 02:09:49;;;;;;;;;;;23.60;48.60;;;;;;6174762;28;19933;-53
2022/05/21 02:12:51;;;;;;;;;;;23.40;48.60;;;;;;6178253;28;19932;-55
2022/05/21 02:15:52;;;;;;;;;;;23.80;48.90;;;;;;6178675;28;20072;-54
2022/05/21 02:18:54;;;;;;;;;;;23.30;48.50;;;;;;6180903;28;20616;-56
2022/05/21 02:21:56;;;;;;;;;;;23.60;49.30;;;;;;6171063;28;20487;-55
2022/05/21 02:24:58;;;;;;;;;;;23.30;48.50;;;;;;6175380;28;20340;-56
2022/05/21 02:28:00;;;;;;;;;;;23.60;48.70;;;;;;6172011;28;19960;-56
2022/05/21 02:31:01;;;;;;;;;;;23.40;48.60;;;;;;6179076;28;19933;-53
2022/05/21 02:34:02;;;;;;;;;;;23.90;48.90;;;;;;6177983;28;20347;-54
2022/05/21 02:40:20;;;;;;;;;;;23.50;48.70;;;;;;6178371;28;20376;-54
2022/05/21 02:43:22;;;;;;;;;;;23.60;48.70;;;;;;6176302;28;19932;-55
2022/05/21 02:46:24;;;;;;;;;;;23.40;48.60;;;;;;6158670;28;19924;-58
2022/05/21 02:49:26;;;;;;;;;;;23.10;48.50;;;;;;6174786;28;20150;-55
2022/05/21 02:52:27;;;;;;;;;;;23.30;48.60;;;;;;6174190;28;20421;-58
2022/05/21 02:55:29;;;;;;;;;;;23.10;48.50;;;;;;6176373;28;19932;-55
2022/05/21 02:58:31;;;;;;;;;;;23.40;48.60;;;;;;6177833;28;20733;-53
2022/05/21 03:01:32;;;;;;;;;;;23.70;48.70;;;;;;6155516;28;19921;-56
2022/05/21 03:04:34;;;;;;;;;;;23.50;48.70;;;;;;6174814;28;20187;-55
2022/05/21 03:07:37;;;;;;;;;;;23.10;48.50;;;;;;6156541;28;19928;-58
2022/05/21 03:10:39;;;;;;;;;;;23.10;48.50;;;;;;6169250;28;20053;-54
2022/05/21 03:13:40;;;;;;;;;;;23.20;48.50;;;;;;6177751;28;20246;-55
2022/05/21 03:16:42;;;;;;;;;;;23.30;48.60;;;;;;6177713;28;20680;-56
2022/05/21 03:19:43;;;;;;;;;;;23.40;48.60;;;;;;6175297;28;20709;-55
2022/05/21 03:22:45;;;;;;;;;;;23.10;48.50;;;;;;6170118;28;20592;-53
2022/05/21 03:25:47;;;;;;;;;;;23.30;48.60;;;;;;6179362;28;20085;-53
2022/05/21 03:28:48;;;;;;;;;;;23.50;48.60;;;;;;6181874;28;19928;-56
2022/05/21 03:31:49;;;;;;;;;;;23.10;48.50;;;;;;6192661;28;19961;-52
2022/05/21 03:34:51;;;;;;;;;;;23.20;48.50;;;;;;6191338;28;19994;-57
2022/05/21 03:37:52;;;;;;;;;;;23.70;48.80;;;;;;6186722;28;19929;-57
2022/05/21 03:40:54;;;;;;;;;;;23.10;48.40;;;;;;6172794;28;19942;-57
2022/05/21 03:43:55;;;;;;;;;;;22.90;48.40;;;;;;6191444;28;19935;-56
2022/05/21 03:46:58;;;;;;;;;;;23.40;48.70;;;;;;6190025;28;20648;-58
2022/05/21 03:50:02;;;;;;;;;;;23.00;48.50;;;;;;6190208;28;19928;-59
2022/05/21 03:53:03;;;;;;;;;;;23.40;48.60;;;;;;6189130;28;20035;-54
2022/05/21 03:56:06;;;;;;;;;;;23.20;48.50;;;;;;6192714;28;20127;-57
2022/05/21 03:59:07;;;;;;;;;;;23.50;48.70;;;;;;6165443;28;19960;-55
2022/05/21 04:02:08;;;;;;;;;;;23.30;48.60;;;;;;6170638;28;20208;-54
2022/05/21 04:05:10;;;;;;;;;;;23.10;48.50;;;;;;6171453;28;20151;-56
2022/05/21 04:08:12;;;;;;;;;;;23.50;48.60;;;;;;6174639;28;19929;-54
2022/05/21 04:11:14;;;;;;;;;;;23.10;48.50;;;;;;6175576;28;19933;-53
2022/05/21 04:14:15;;;;;;;;;;;23.50;48.60;;;;;;6177937;28;19982;-57
2022/05/21 04:17:16;;;;;;;;;;;23.40;48.60;;;;;;6175240;28;20232;-56
2022/05/21 04:20:19;;;;;;;;;;;23.40;48.70;;;;;;6165755;28;20014;-55
2022/05/21 04:23:21;;;;;;;;;;;23.30;48.50;;;;;;6184097;28;20360;-54
2022/05/21 04:26:23;;;;;;;;;;;23.50;48.70;;;;;;6183428;28;19927;-55
2022/05/21 04:29:24;;;;;;;;;;;23.40;48.60;;;;;;6182080;28;19976;-57
2022/05/21 04:32:25;;;;;;;;;;;22.90;48.40;;;;;;6185153;28;20033;-53
2022/05/21 04:36:17;;;;;;;;;;;23.20;48.60;;;;;;6188705;28;19998;-56
2022/05/21 04:38:49;;;;;;;;;;;23.40;48.60;;;;;;6168783;28;20244;-56
2022/05/21 04:41:51;;;;;;;;;;;23.00;48.40;;;;;;6170780;28;20271;-54
2022/05/21 04:44:53;;;;;;;;;;;22.90;48.40;;;;;;6171361;28;20696;-57
2022/05/21 04:47:54;;;;;;;;;;;23.40;48.60;;;;;;6170451;28;20185;-55
2022/05/21 04:50:58;;;;;;;;;;;23.00;48.50;;;;;;6161332;28;19925;-58
2022/05/21 04:53:59;;;;;;;;;;;23.10;48.50;;;;;;6169339;28;19967;-55
2022/05/21 04:57:01;;;;;;;;;;;23.30;48.60;;;;;;6168851;28;20174;-56
2022/05/21 05:00:03;;;;;;;;;;;23.30;48.60;;;;;;6170146;28;21550;-53
2022/05/21 05:03:09;;;;;;;;;;;23.20;48.60;;;;;;6147852;28;19925;-54
2022/05/21 05:06:11;;;;;;;;;;;23.10;48.50;;;;;;6156991;28;20442;-56
2022/05/21 05:09:12;;;;;;;;;;;23.10;48.60;;;;;;6172798;28;20749;-56
2022/05/21 05:12:14;;;;;;;;;;;23.40;48.80;;;;;;6173083;28;19925;-55
2022/05/21 05:15:16;;;;;;;;;;;23.20;48.60;;;;;;6169949;28;19928;-53
2022/05/21 05:18:19;;;;;;;;;;;23.20;48.60;;;;;;6166796;28;20082;-54
2022/05/21 05:21:21;;;;;;;;;;;23.20;48.60;;;;;;6159794;28;20044;-55
2022/05/21 05:24:22;;;;;;;;;;;23.00;48.50;;;;;;6166969;28;20384;-55
2022/05/21 05:27:24;;;;;;;;;;;23.10;48.50;;;;;;6165172;28;20403;-55
2022/05/21 05:30:26;;;;;;;;;;;23.10;48.50;;;;;;6169178;28;20413;-54
2022/05/21 05:33:30;;;;;;;;;;;23.40;48.70;;;;;;6149585;28;20032;-56
2022/05/21 05:36:32;;;;;;;;;;;23.10;48.60;;;;;;6166779;28;19953;-57
2022/05/21 05:39:33;;;;;;;;;;;23.30;48.70;;;;;;6168076;28;19935;-55
2022/05/21 05:42:35;;;;;;;;;;;23.50;48.90;;;;;;6152754;28;19936;-54
2022/05/21 05:45:38;;;;;;;;;;;22.90;48.50;;;;;;6165635;28;19955;-56
2022/05/21 05:48:40;;;;;;;;;;;23.00;48.60;;;;;;6169311;28;20484;-55
2022/05/21 05:51:41;;;;;;;;;;;23.10;48.60;;;;;;6167501;28;20153;-55
2022/05/21 05:54:43;;;;;;;;;;;23.30;48.80;;;;;;6167912;28;20781;-56
2022/05/21 05:57:49;;;;;;;;;;;23.40;48.80;;;;;;6166243;28;20522;-52
2022/05/21 06:00:52;;;;;;;;;;;23.40;48.70;;;;;;6167472;28;19956;-54
2022/05/21 06:03:54;;;;;;;;;;;23.10;48.60;;;;;;6152947;28;19936;-53
2022/05/21 06:06:55;;;;;;;;;;;23.20;48.70;;;;;;6160126;28;20216;-58
2022/05/21 06:10:01;;;;;;;;;;;22.80;48.50;;;;;;6161189;28;20868;-57
2022/05/21 06:13:10;;;;;;;;;;;23.50;48.80;;;;;;6160680;28;19971;-52
2022/05/21 06:16:12;;;;;;;;;;;23.20;48.70;;;;;;6166127;28;20546;-53
2022/05/21 06:19:16;;;;;;;;;;;23.20;48.60;;;;;;6165629;28;20221;-54
2022/05/21 06:22:17;;;;;;;;;;;22.80;48.50;;;;;;6163982;28;19925;-55
2022/05/21 06:25:20;;;;;;;;;;;22.90;48.50;;;;;;6168927;28;20081;-56
2022/05/21 06:28:22;;;;;;;;;;;23.20;48.60;;;;;;6155432;28;20051;-57
2022/05/21 06:31:23;;;;;;;;;;;23.40;48.80;;;;;;6154207;28;19926;-55
2022/05/21 06:34:24;;;;;;;;;;;23.10;48.70;;;;;;6150851;28;19955;-53
2022/05/21 06:37:26;;;;;;;;;;;22.60;48.40;;;;;;6173062;28;20052;-53
2022/05/21 06:40:27;;;;;;;;;;;22.90;48.60;;;;;;6162381;28;19925;-57
2022/05/21 06:43:29;;;;;;;;;;;22.90;48.60;;;;;;6158373;28;20073;-56
2022/05/21 06:46:30;;;;;;;;;;;23.20;48.70;;;;;;6173465;28;20039;-52
2022/05/21 06:49:32;;;;;;;;;;;23.30;48.80;;;;;;6173118;28;20996;-53
2022/05/21 06:52:35;;;;;;;;;;;23.30;48.80;;;;;;6171051;28;20014;-53
2022/05/21 06:55:43;;;;;;;;;;;23.10;48.70;;;;;;6167214;28;20341;-52
2022/05/21 06:58:46;;;;;;;;;;;22.60;48.40;;;;;;6169288;28;20274;-53
2022/05/21 07:01:47;;;;;;;;;;;23.10;48.60;;;;;;6173701;28;19929;-53
2022/05/21 07:08:00;;;;;;;;;;;22.90;48.60;;;;;;6156903;28;20346;-56
2022/05/21 07:11:02;;;;;;;;;;;23.50;48.90;;;;;;6148143;28;20877;-54
2022/05/21 07:14:04;;;;;;;;;;;23.20;48.70;;;;;;6172366;28;20700;-52
2022/05/21 07:17:11;;;;;;;;;;;23.20;48.70;;;;;;6172346;28;20050;-52
2022/05/21 07:20:15;;;;;;;;;;;23.40;48.80;;;;;;6171485;28;20043;-53
2022/05/21 07:23:16;;;;;;;;;;;23.30;48.80;;;;;;6147147;28;20127;-53
2022/05/21 07:26:18;;;;;;;;;;;22.80;48.50;;;;;;6152399;28;20362;-54
2022/05/21 07:29:20;;;;;;;;;;;23.20;48.80;;;;;;6174421;28;19925;-53
2022/05/21 07:32:23;;;;;;;;;;;22.90;48.60;;;;;;6165313;28;20021;-55
2022/05/21 07:35:25;;;;;;;;;;;23.10;48.70;;;;;;6170717;28;19964;-57
2022/05/21 07:38:27;;;;;;;;;;;23.30;48.70;;;;;;6170937;28;20397;-54
2022/05/21 07:41:28;;;;;;;;;;;22.90;48.50;;;;;;6155000;28;20261;-54
2022/05/21 07:44:30;;;;;;;;;;;22.80;48.50;;;;;;6167500;28;20379;-52
2022/05/21 07:47:32;;;;;;;;;;;23.30;48.70;;;;;;6172957;28;19971;-54
2022/05/21 07:50:33;;;;;;;;;;;23.20;48.70;;;;;;6167113;28;19926;-51
2022/05/21 07:53:37;;;;;;;;;;;23.40;48.80;;;;;;6173211;28;20413;-57
2022/05/21 07:56:38;;;;;;;;;;;22.90;48.50;;;;;;6152476;28;20061;-54
2022/05/21 07:59:40;;;;;;;;;;;23.50;48.80;;;;;;6172579;28;20535;-53
2022/05/21 08:02:42;;;;;;;;;;;23.40;48.70;;;;;;6169061;28;20417;-52
2022/05/21 08:05:44;;;;;;;;;;;23.30;48.70;;;;;;6167333;28;20393;-55
2022/05/21 08:08:45;;;;;;;;;;;23.30;48.70;;;;;;6152765;28;20211;-54
2022/05/21 08:11:47;;;;;;;;;;;23.20;48.60;;;;;;6174513;28;20743;-53
2022/05/21 08:14:49;;;;;;;;;;;23.20;48.70;;;;;;6171976;28;20312;-51
2022/05/21 08:17:50;;;;;;;;;;;23.40;48.70;;;;;;6170959;28;19936;-55
2022/05/21 08:20:53;;;;;;;;;;;23.40;48.80;;;;;;6172926;28;19939;-54
2022/05/21 08:27:10;;;;;;;;;;;23.50;48.80;;;;;;6169619;28;20077;-54
2022/05/21 08:30:12;;;;;;;;;;;23.30;48.70;;;;;;6168266;28;21478;-55
2022/05/21 08:33:14;;;;;;;;;;;23.50;48.70;;;;;;6170965;28;20031;-53
2022/05/21 08:36:16;;;;;;;;;;;23.10;48.50;;;;;;6153522;28;19929;-52
2022/05/21 08:39:21;;;;;;;;;;;23.30;48.60;;;;;;6170500;28;20492;-53
2022/05/21 08:42:28;;;;;;;;;;;23.50;48.70;;;;;;6169823;28;19932;-52
2022/05/21 08:45:44;;;;;;;;;;;23.50;48.70;;;;;;6165934;28;20294;-53
2022/05/21 08:48:49;;;;;;;;;;;23.30;48.60;;;;;;6167270;28;19928;-52
2022/05/21 08:51:53;;;;;;;;;;;23.50;48.70;;;;;;6170232;28;20236;-56
2022/05/21 08:54:55;;;;;;;;;;;23.30;48.60;;;;;;6152811;28;19924;-52
2022/05/21 08:58:00;;;;;;;;;;;23.70;48.70;;;;;;6169104;28;20200;-53
2022/05/21 09:01:02;;;;;;;;;;;23.20;48.50;;;;;;6167996;28;20122;-55
2022/05/21 09:04:04;;;;;;;;;;;23.70;48.70;;;;;;6165638;28;19924;-55
2022/05/21 09:07:11;;;;;;;;;;;23.50;48.60;;;;;;6166623;28;20336;-55
2022/05/21 09:10:27;;;;;;;;;;;23.60;48.70;;;;;;6167753;28;19967;-54
2022/05/21 09:13:32;;;;;;;;;;;23.70;48.70;;;;;;6166652;28;19925;-56
2022/05/21 09:19:52;;;;;;;;;;;23.70;48.70;;;;;;6169104;28;20153;-54
2022/05/21 09:22:54;;;;;;;;;;;23.60;48.60;;;;;;6149675;28;20002;-55
2022/05/21 09:26:03;;;;;;;;;;;23.40;48.50;;;;;;6151872;28;19936;-52
2022/05/21 09:29:12;;;;;;;;;;;23.80;48.70;;;;;;6168342;28;19929;-57
2022/05/21 09:32:17;;;;;;;;;;;23.70;48.70;;;;;;6150130;28;19929;-52
2022/05/21 09:35:19;;;;;;;;;;;23.80;48.70;;;;;;6167605;28;20143;-52
2022/05/21 09:38:23;;;;;;;;;;;23.60;49.20;;;;;;6162453;28;20170;-54
2022/05/21 09:41:27;;;;;;;;;;;24.30;48.90;;;;;;6168170;28;20023;-55
2022/05/21 09:47:43;;;;;;;;;;;23.80;48.70;;;;;;6167482;28;20839;-56
2022/05/21 09:50:46;;;;;;;;;;;23.90;48.60;;;;;;6167434;28;19929;-51
2022/05/21 09:53:47;;;;;;;;;;;23.80;48.70;;;;;;6185773;28;20019;-53
2022/05/21 09:56:51;;;;;;;;;;;23.70;48.70;;;;;;6180364;28;20441;-53
2022/05/21 10:00:01;;;;;;;;;;;23.80;48.70;;;;;;6168079;28;20147;-56
2022/05/21 10:03:13;;;;;;;;;;;23.80;48.60;;;;;;6175292;28;19930;-55
2022/05/21 10:06:18;;;;;;;;;;;23.80;48.60;;;;;;6183793;28;19927;-56
2022/05/21 10:12:37;;;;;;;;;;;23.90;48.60;;;;;;6171511;28;20113;-57
2022/05/21 10:15:40;;;;;;;;;;;23.50;48.40;;;;;;6174112;28;20321;-53
2022/05/21 10:18:45;;;;;;;;;;;23.60;48.40;;;;;;6158233;28;19928;-56
2022/05/21 10:21:53;;;;;;;;;;;24.00;48.70;;;;;;6169603;28;20281;-53
2022/05/21 10:24:59;;;;;;;;;;;24.10;48.70;;;;;;6170224;28;20539;-55
2022/05/21 10:28:05;;;;;;;;;;;23.80;48.50;;;;;;6169535;28;20635;-51
2022/05/21 10:31:13;;;;;;;;;;;23.90;48.50;;;;;;6153451;28;20276;-55
2022/05/21 10:34:23;;;;;;;;;;;24.00;48.60;;;;;;6167509;28;20300;-54
2022/05/21 10:37:32;;;;;;;;;;;23.90;48.50;;;;;;6150125;28;19925;-53
2022/05/21 10:40:36;;;;;;;;;;;24.00;48.50;;;;;;6168198;28;20163;-57
2022/05/21 10:43:51;;;;;;;;;;;23.90;48.50;;;;;;6151179;28;20805;-55
2022/05/21 10:46:56;;;;;;;;;;;23.90;48.40;;;;;;6150171;28;20145;-53
2022/05/21 10:50:10;;;;;;;;;;;23.80;48.50;;;;;;6166967;28;21195;-54
2022/05/21 10:53:20;;;;;;;;;;;24.00;48.60;;;;;;6171670;28;20220;-52
2022/05/21 10:56:30;;;;;;;;;;;23.80;48.50;;;;;;6168910;28;20515;-54
2022/05/21 10:59:40;;;;;;;;;;;24.20;48.60;;;;;;6172957;28;19932;-56
2022/05/21 11:02:57;;;;;;;;;;;24.10;48.60;;;;;;6171813;28;19928;-57
2022/05/21 11:06:05;;;;;;;;;;;23.70;49.00;;;;;;6171107;28;20063;-52
2022/05/21 11:09:11;;;;;;;;;;;24.00;48.50;;;;;;6151059;28;20605;-54
2022/05/21 11:12:15;;;;;;;;;;;24.00;48.50;;;;;;6147401;28;20077;-50
2022/05/21 11:15:23;;;;;;;;;;;24.00;48.50;;;;;;6152343;28;20357;-54
2022/05/21 11:18:31;;;;;;;;;;;24.00;48.40;;;;;;6167902;28;19929;-57
2022/05/21 11:21:34;;;;;;;;;;;24.10;48.50;;;;;;6169137;28;20344;-57
2022/05/21 11:24:40;;;;;;;;;;;24.20;48.50;;;;;;6153654;28;20821;-53
2022/05/21 11:27:46;;;;;;;;;;;23.80;48.30;;;;;;6169010;28;20132;-54
2022/05/21 11:30:47;;;;;;;;;;;24.20;48.50;;;;;;6166457;28;20028;-53
2022/05/21 11:40:36;;;;;;;;;;;23.90;48.30;;;;;;6168649;28;20167;-53
2022/05/21 11:43:52;;;;;;;;;;;24.20;48.50;;;;;;6171390;28;19935;-57
2022/05/21 11:46:54;;;;;;;;;;;24.10;48.40;;;;;;6141305;28;20007;-55
2022/05/21 11:50:06;;;;;;;;;;;24.30;48.50;;;;;;6169118;28;23439;-57
2022/05/21 11:53:10;;;;;;;;;;;24.10;48.40;;;;;;6134363;28;19925;-54
2022/05/21 11:56:12;;;;;;;;;;;23.90;48.30;;;;;;6168759;28;19929;-55
2022/05/21 11:59:15;;;;;;;;;;;24.20;48.40;;;;;;6157054;28;20365;-56
2022/05/21 12:02:18;;;;;;;;;;;24.30;48.40;;;;;;6149832;28;19991;-55
2022/05/21 12:05:46;;;;;;;;;;;24.20;48.30;;;;;;6146013;28;20470;-58
2022/05/21 12:08:49;;;;;;;;;;;24.40;48.40;;;;;;6149648;28;20523;-53
2022/05/21 12:11:51;;;;;;;;;;;24.30;48.40;;;;;;6158967;28;20025;-58
2022/05/21 12:14:53;;;;;;;;;;;24.40;48.40;;;;;;6164083;28;19996;-58
2022/05/21 12:18:02;;;;;;;;;;;24.10;48.20;;;;;;6165538;28;19929;-54
2022/05/21 12:21:05;;;;;;;;;;;24.10;48.30;;;;;;6164420;28;20034;-55
2022/05/21 12:24:08;;;;;;;;;;;24.20;48.30;;;;;;6165149;28;19995;-56
2022/05/21 12:27:15;;;;;;;;;;;24.30;48.30;;;;;;6166312;28;20730;-56
2022/05/21 12:30:23;;;;;;;;;;;24.40;48.30;;;;;;6163302;28;20509;-54
2022/05/21 12:33:31;;;;;;;;;;;24.30;48.30;;;;;;6151964;28;19974;-52
2022/05/21 12:36:40;;;;;;;;;;;24.30;48.30;;;;;;6166390;28;19928;-57
2022/05/21 12:39:53;;;;;;;;;;;24.20;48.20;;;;;;6162451;28;20401;-56
2022/05/21 12:42:58;;;;;;;;;;;24.40;48.30;;;;;;6165644;28;19925;-55
2022/05/21 12:46:00;;;;;;;;;;;24.00;48.10;;;;;;6154854;28;20630;-57
2022/05/21 12:49:04;;;;;;;;;;;24.30;48.30;;;;;;6156033;28;20487;-57
2022/05/21 12:52:05;;;;;;;;;;;24.40;48.30;;;;;;6147085;28;20384;-53
2022/05/21 12:55:16;;;;;;;;;;;24.20;48.20;;;;;;6163524;28;19926;-55
2022/05/21 12:58:19;;;;;;;;;;;24.20;48.20;;;;;;6163030;28;20645;-58
2022/05/21 13:01:22;;;;;;;;;;;24.20;48.20;;;;;;6151771;28;20648;-54
2022/05/21 13:04:26;;;;;;;;;;;24.30;48.30;;;;;;6148419;28;21413;-55
2022/05/21 13:07:34;;;;;;;;;;;24.40;48.30;;;;;;6147750;28;21297;-56
2022/05/21 13:10:40;;;;;;;;;;;24.30;48.30;;;;;;6166200;28;19929;-57
2022/05/21 13:13:43;;;;;;;;;;;24.40;48.30;;;;;;6148757;28;20068;-54
2022/05/21 13:16:47;;;;;;;;;;;24.20;48.20;;;;;;6143801;28;20167;-54
2022/05/21 13:19:56;;;;;;;;;;;24.30;48.20;;;;;;6149126;28;19925;-56
2022/05/21 13:23:05;;;;;;;;;;;24.30;48.30;;;;;;6151299;28;19976;-57
2022/05/21 13:26:07;;;;;;;;;;;24.40;48.30;;;;;;6156548;28;19961;-57
2022/05/21 13:29:11;;;;;;;;;;;24.00;48.10;;;;;;6161764;28;20766;-58
2022/05/21 13:32:16;;;;;;;;;;;24.00;48.10;;;;;;6163333;28;19995;-56
2022/05/21 13:35:19;;;;;;;;;;;24.20;48.20;;;;;;6160957;28;20726;-57
2022/05/21 13:38:27;;;;;;;;;;;24.30;48.30;;;;;;6139614;28;19930;-54
2022/05/21 13:41:30;;;;;;;;;;;24.20;48.20;;;;;;6160713;28;20298;-52
2022/05/21 13:44:35;;;;;;;;;;;24.40;48.30;;;;;;6163690;28;20353;-55
2022/05/21 13:47:40;;;;;;;;;;;24.30;48.30;;;;;;6161568;28;20188;-58
2022/05/21 13:50:42;;;;;;;;;;;24.30;48.30;;;;;;6157175;28;20081;-56
2022/05/21 13:53:44;;;;;;;;;;;24.30;48.20;;;;;;6162391;28;19935;-56
2022/05/21 13:57:00;;;;;;;;;;;24.20;48.10;;;;;;6144172;28;19925;-57
2022/05/21 14:00:06;;;;;;;;;;;24.50;48.30;;;;;;6161123;28;20230;-54
2022/05/21 14:03:25;;;;;;;;;;;24.30;48.30;;;;;;6143867;28;19995;-55
2022/05/21 14:06:26;;;;;;;;;;;24.20;48.20;;;;;;6143201;28;20055;-57
2022/05/21 14:09:29;;;;;;;;;;;24.30;48.30;;;;;;6162075;28;21133;-55
2022/05/21 14:12:35;;;;;;;;;;;24.20;48.30;;;;;;6160663;28;20048;-57
2022/05/21 14:15:42;;;;;;;;;;;24.30;48.30;;;;;;6163714;28;20227;-55
2022/05/21 14:18:58;;;;;;;;;;;24.40;48.40;;;;;;6162958;28;20072;-57
2022/05/21 14:22:01;;;;;;;;;;;24.30;48.30;;;;;;6164061;28;20173;-55
2022/05/21 14:25:20;;;;;;;;;;;24.20;48.30;;;;;;6164555;28;20056;-55
2022/05/21 14:28:23;;;;;;;;;;;24.10;48.20;;;;;;6148324;28;20152;-54
2022/05/21 14:31:27;;;;;;;;;;;24.40;48.40;;;;;;6168405;28;20043;-53
2022/05/21 14:34:29;;;;;;;;;;;24.10;48.20;;;;;;6149825;28;20559;-57
2022/05/21 14:37:30;;;;;;;;;;;24.40;48.30;;;;;;6162525;28;20741;-54
2022/05/21 14:40:43;;;;;;;;;;;24.40;48.30;;;;;;6167911;28;20205;-57
2022/05/21 14:43:45;;;;;;;;;;;24.40;48.30;;;;;;6149453;28;19979;-53
2022/05/21 14:53:18;;;;;;;;;;;24.40;48.20;;;;;;6174291;28;20231;-57
2022/05/21 14:56:24;;;;;;;;;;;24.20;48.10;;;;;;6152884;28;19955;-58
2022/05/21 14:59:27;;;;;;;;;;;24.10;48.00;;;;;;6153949;28;20453;-57
2022/05/21 15:02:28;;;;;;;;;;;24.40;48.80;;;;;;6171201;28;19924;-54
2022/05/21 15:05:32;;;;;;;;;;;24.30;48.20;;;;;;6170192;28;20288;-52
2022/05/21 15:08:37;;;;;;;;;;;24.50;48.20;;;;;;6173082;28;20225;-53
2022/05/21 15:11:38;;;;;;;;;;;24.20;48.10;;;;;;6171398;28;20039;-56
2022/05/21 15:14:42;;;;;;;;;;;24.10;48.00;;;;;;6171354;28;20312;-54
2022/05/21 15:17:43;;;;;;;;;;;24.50;48.30;;;;;;6168677;28;20179;-64
2022/05/21 15:20:46;;;;;;;;;;;24.40;48.20;;;;;;6155419;28;20893;-54
2022/05/21 15:23:47;;;;;;;;;;;24.40;48.20;;;;;;6170762;28;20291;-58
2022/05/21 15:26:48;;;;;;;;;;;24.10;48.10;;;;;;6165958;28;20542;-57
2022/05/21 15:29:51;;;;;;;;;;;24.30;48.10;;;;;;6168132;28;20322;-55
2022/05/21 15:32:52;;;;;;;;;;;24.10;48.10;;;;;;6171272;28;19925;-55
2022/05/21 15:35:54;;;;;;;;;;;24.30;48.20;;;;;;6174546;28;19972;-57
2022/05/21 15:38:55;;;;;;;;;;;24.30;48.20;;;;;;6165462;28;20322;-55
2022/05/21 15:41:57;;;;;;;;;;;24.10;48.10;;;;;;6172518;28;20496;-55
2022/05/21 15:44:59;;;;;;;;;;;24.30;48.20;;;;;;6170272;28;20520;-54
2022/05/21 15:48:00;;;;;;;;;;;24.30;48.20;;;;;;6168811;28;20880;-54
2022/05/21 15:51:03;;;;;;;;;;;24.20;48.10;;;;;;6168217;28;20645;-54
2022/05/21 15:54:05;;;;;;;;;;;24.20;48.10;;;;;;6167717;28;20022;-54
2022/05/21 15:57:07;;;;;;;;;;;24.40;48.30;;;;;;6152300;28;20644;-58
2022/05/21 16:00:10;;;;;;;;;;;24.20;48.10;;;;;;6172995;28;19937;-57
2022/05/21 16:03:14;;;;;;;;;;;24.20;48.10;;;;;;6153602;28;19924;-56
2022/05/21 16:06:15;;;;;;;;;;;24.20;48.10;;;;;;6167202;28;20272;-56
2022/05/21 16:09:17;;;;;;;;;;;24.30;48.20;;;;;;6170229;28;19932;-57
2022/05/21 16:12:20;;;;;;;;;;;24.30;48.20;;;;;;6167814;28;20133;-56
2022/05/21 16:15:23;;;;;;;;;;;24.20;48.10;;;;;;6163447;28;19928;-52
2022/05/21 16:18:24;;;;;;;;;;;24.40;48.30;;;;;;6146326;28;20420;-56
2022/05/21 16:21:28;;;;;;;;;;;24.20;48.10;;;;;;6163426;28;20340;-55
2022/05/21 16:24:30;;;;;;;;;;;24.30;48.20;;;;;;6163089;28;20249;-55
2022/05/21 16:27:32;;;;;;;;;;;24.20;48.10;;;;;;6140942;28;20271;-57
2022/05/21 16:30:34;;;;;;;;;;;23.90;47.90;;;;;;6167537;28;20151;-57
2022/05/21 16:33:36;;;;;;;;;;;24.20;48.00;;;;;;6167925;28;19929;-54
2022/05/21 16:36:37;;;;;;;;;;;24.00;47.90;;;;;;6162982;28;19925;-56
2022/05/21 16:39:39;;;;;;;;;;;24.20;48.00;;;;;;6159268;28;20006;-57
2022/05/21 16:42:41;;;;;;;;;;;24.40;48.10;;;;;;6167008;28;20353;-58
2022/05/21 16:45:44;;;;;;;;;;;24.50;48.00;;;;;;6153324;28;20379;-57
2022/05/21 16:48:45;;;;;;;;;;;24.40;48.00;;;;;;6140124;28;21038;-55
2022/05/21 16:51:47;;;;;;;;;;;24.60;48.00;;;;;;6159623;28;20948;-57
2022/05/21 16:54:49;;;;;;;;;;;24.50;47.90;;;;;;6145746;28;19931;-57
2022/05/21 16:57:50;;;;;;;;;;;24.50;47.90;;;;;;6161134;28;20327;-54
2022/05/21 17:00:52;;;;;;;;;;;24.40;47.80;;;;;;6164505;28;20067;-56
2022/05/21 17:03:54;;;;;;;;;;;24.60;47.90;;;;;;6164692;28;19925;-55
2022/05/21 17:06:55;;;;;;;;;;;24.30;47.70;;;;;;6162972;28;19929;-56
2022/05/21 17:09:56;;;;;;;;;;;24.10;47.60;;;;;;6164851;28;19932;-56
2022/05/21 17:12:58;;;;;;;;;;;24.50;47.80;;;;;;6148009;28;19928;-56
2022/05/21 17:16:00;;;;;;;;;;;24.30;47.70;;;;;;6158655;28;20180;-56
2022/05/21 17:19:09;;;;;;;;;;;24.60;47.80;;;;;;6160805;28;20552;-57
2022/05/21 17:22:11;;;;;;;;;;;24.20;47.70;;;;;;6161523;28;20738;-55
2022/05/21 17:25:13;;;;;;;;;;;24.20;47.70;;;;;;6164590;28;20969;-56
2022/05/21 17:31:31;;;;;;;;;;;24.60;48.50;;;;;;6157709;28;19925;-56
2022/05/21 17:34:32;;;;;;;;;;;24.60;47.90;;;;;;6163173;28;20086;-52
2022/05/21 17:37:33;;;;;;;;;;;24.60;47.90;;;;;;6169581;28;20376;-56
2022/05/21 17:40:35;;;;;;;;;;;24.70;48.00;;;;;;6162991;28;20007;-54
2022/05/21 17:43:37;;;;;;;;;;;24.50;47.90;;;;;;6162832;28;20556;-58
2022/05/21 17:46:40;;;;;;;;;;;24.70;48.00;;;;;;6148070;28;20821;-56
2022/05/21 17:49:42;;;;;;;;;;;24.80;48.00;;;;;;6147445;28;20537;-57
2022/05/21 17:52:43;;;;;;;;;;;24.40;47.80;;;;;;6167766;28;19968;-54
2022/05/21 17:55:46;;;;;;;;;;;24.70;48.00;;;;;;6168259;28;20833;-56
2022/05/21 17:58:48;;;;;;;;;;;24.40;47.90;;;;;;6166433;28;20499;-55
2022/05/21 18:01:50;;;;;;;;;;;24.70;48.00;;;;;;6169094;28;20230;-56
2022/05/21 18:04:51;;;;;;;;;;;24.60;48.00;;;;;;6168494;28;20918;-58
2022/05/21 18:07:53;;;;;;;;;;;24.40;47.90;;;;;;6148558;28;20476;-57
2022/05/21 18:10:54;;;;;;;;;;;24.30;47.90;;;;;;6166799;28;19929;-57
2022/05/21 18:13:56;;;;;;;;;;;24.50;48.60;;;;;;6165834;28;19929;-55
2022/05/21 18:20:33;;;;;;;;;;;24.60;48.00;;;;;;6141096;28;19964;-58
2022/05/21 18:23:35;;;;;;;;;;;24.50;48.10;;;;;;6166933;28;19933;-53
2022/05/21 18:26:36;;;;;;;;;;;24.50;48.10;;;;;;6167837;28;19925;-58
2022/05/21 18:29:40;;;;;;;;;;;24.50;48.00;;;;;;6167655;28;20179;-55